Time;durP1;ratioP1;P1;durP2;ratioP2;P2;SDS_P1;SDS_P2;PMS_P1;PMS_P2;Temp;Humidity;BMP_temperature;BMP_pressure;BME280_temperature;BME280_humidity;BME280_pressure;Samples;Min_cycle;Max_cycle;Signal;HPM_P1;HPM_P2
2023/06/09 00:01:04;;;;;;;5.25;4.75;;;;;;;17.13;82.94;98273.59;4104253;28;20682;-48
2023/06/09 00:03:07;;;;;;;4.50;4.20;;;;;;;17.13;83.34;98276.34;4110373;28;20214;-48
2023/06/09 00:05:09;;;;;;;4.43;4.13;;;;;;;17.08;82.84;98273.66;4109299;28;20207;-47
2023/06/09 00:07:11;;;;;;;4.82;4.43;;;;;;;17.10;83.45;98266.72;4108058;28;20285;-48
2023/06/09 00:09:13;;;;;;;5.20;4.75;;;;;;;17.12;83.35;98258.94;4124282;28;20657;-48
2023/06/09 00:11:14;;;;;;;6.00;5.53;;;;;;;17.11;83.71;98267.53;4109170;28;20211;-48
2023/06/09 00:13:17;;;;;;;4.60;4.30;;;;;;;17.05;83.50;98263.19;4109090;28;20211;-48
2023/06/09 00:15:20;;;;;;;9.60;4.53;;;;;;;16.98;83.89;98269.06;4108930;28;20218;-48
2023/06/09 00:17:24;;;;;;;4.57;4.22;;;;;;;16.95;84.14;98263.31;4105592;28;20729;-48
2023/06/09 00:19:27;;;;;;;5.35;4.82;;;;;;;16.90;84.09;98257.06;4109383;28;20222;-48
2023/06/09 00:21:29;;;;;;;5.60;5.13;;;;;;;16.91;84.47;98259.53;4110227;28;20269;-48
2023/06/09 00:23:31;;;;;;;5.95;5.45;;;;;;;16.85;84.94;98252.41;4105915;28;20297;-47
2023/06/09 00:25:33;;;;;;;5.60;5.10;;;;;;;16.84;84.58;98256.28;4094225;28;20203;-49
2023/06/09 00:27:34;;;;;;;5.63;5.22;;;;;;;16.87;84.52;98255.69;4111017;28;20565;-48
2023/06/09 00:29:36;;;;;;;5.50;5.00;;;;;;;16.84;84.73;98253.50;4110194;28;20290;-49
2023/06/09 00:31:39;;;;;;;4.88;4.47;;;;;;;16.84;84.96;98253.50;4111540;28;20203;-48
2023/06/09 00:33:41;;;;;;;5.53;5.13;;;;;;;16.79;84.92;98253.59;4095482;28;20227;-50
2023/06/09 00:35:43;;;;;;;4.88;4.47;;;;;;;16.73;84.64;98249.25;4104382;28;20637;-48
2023/06/09 00:37:46;;;;;;;6.28;5.25;;;;;;;16.65;85.25;98241.63;4110255;28;20230;-48
2023/06/09 00:39:48;;;;;;;5.70;5.03;;;;;;;16.62;85.12;98235.88;4107695;28;21035;-47
2023/06/09 00:41:50;;;;;;;5.85;5.40;;;;;;;16.66;85.51;98240.50;4108010;28;20653;-47
2023/06/09 00:43:53;;;;;;;6.85;6.22;;;;;;;16.61;85.61;98254.38;4093592;28;20297;-48
2023/06/09 00:45:55;;;;;;;5.53;5.13;;;;;;;16.53;86.24;98249.50;4110043;28;20218;-48
2023/06/09 00:48:00;;;;;;;5.07;4.78;;;;;;;16.47;85.96;98247.09;4109828;28;20630;-48
2023/06/09 00:50:02;;;;;;;5.80;5.30;;;;;;;16.41;85.73;98240.81;4095670;28;20210;-47
2023/06/09 00:52:04;;;;;;;5.13;4.72;;;;;;;16.53;86.10;98255.03;4108193;28;20262;-48
2023/06/09 00:54:06;;;;;;;6.35;5.85;;;;;;;16.47;86.27;98247.91;4110915;28;20655;-48
2023/06/09 00:56:08;;;;;;;7.13;5.57;;;;;;;16.40;86.04;98244.69;4107343;28;20222;-48
2023/06/09 00:58:10;;;;;;;5.57;5.18;;;;;;;16.37;86.07;98248.00;4093144;28;20604;-49
2023/06/09 01:00:16;;;;;;;5.57;5.18;;;;;;;16.36;86.16;98249.13;4090554;28;20239;-50
2023/06/09 01:02:19;;;;;;;5.38;4.97;;;;;;;16.37;86.79;98245.22;4101593;28;20223;-48
2023/06/09 01:04:21;;;;;;;6.05;5.65;;;;;;;16.27;86.73;98245.34;4108740;28;20238;-47
2023/06/09 01:06:31;;;;;;;5.32;4.93;;;;;;;16.27;86.79;98239.84;4110051;28;20248;-48
2023/06/09 01:09:03;;;;;;;6.20;5.80;;;;;;;15.99;89.03;98243.47;4111412;28;20241;-50
2023/06/09 01:11:22;;;;;;;5.70;5.30;;;;;;;15.88;90.53;98252.94;4106654;28;20306;-48
2023/06/09 01:13:31;;;;;;;6.40;5.90;;;;;;;16.10;89.62;98256.03;4107143;28;20230;-48
2023/06/09 01:15:36;;;;;;;5.72;5.22;;;;;;;16.12;89.33;98248.28;4125610;28;20264;-49
2023/06/09 01:17:39;;;;;;;5.35;4.95;;;;;;;16.14;89.18;98246.06;4109176;28;20704;-48
2023/06/09 01:19:44;;;;;;;5.70;5.20;;;;;;;16.03;89.13;98250.03;4094152;28;20211;-49
2023/06/09 01:21:48;;;;;;;5.88;5.45;;;;;;;16.03;89.24;98243.69;4108027;28;20202;-48
2023/06/09 01:24:16;;;;;;;5.65;5.15;;;;;;;16.00;89.10;98244.25;4111561;28;20230;-47
2023/06/09 01:26:18;;;;;;;6.07;5.63;;;;;;;15.99;89.42;98242.63;4127102;28;20237;-48
2023/06/09 01:28:21;;;;;;;6.28;5.82;;;;;;;15.96;89.48;98238.50;4111624;28;20739;-48
2023/06/09 01:30:29;;;;;;;5.00;4.60;;;;;;;15.94;89.19;98240.75;4112032;28;20218;-48
2023/06/09 01:32:31;;;;;;;5.50;5.10;;;;;;;15.95;89.40;98239.63;4110233;28;20293;-47
2023/06/09 01:34:34;;;;;;;6.68;6.18;;;;;;;15.89;89.58;98238.03;4112508;28;20696;-48
2023/06/09 01:36:35;;;;;;;6.35;5.85;;;;;;;15.89;89.37;98238.03;4096223;28;20282;-50
2023/06/09 01:38:38;;;;;;;5.45;5.05;;;;;;;15.87;89.74;98240.25;4109354;28;20223;-48
2023/06/09 01:40:40;;;;;;;5.28;4.88;;;;;;;15.83;89.74;98233.66;4109776;28;20207;-47
2023/06/09 01:42:42;;;;;;;6.10;5.65;;;;;;;15.80;89.65;98231.50;4111248;28;20793;-48
2023/06/09 01:44:44;;;;;;;5.97;5.55;;;;;;;15.82;89.41;98232.03;4112633;28;20231;-48
2023/06/09 01:46:45;;;;;;;6.10;5.60;;;;;;;15.77;90.00;98234.81;4112254;28;20219;-48
2023/06/09 01:48:50;;;;;;;4.60;4.28;;;;;;;15.71;89.92;98235.16;4111745;28;20242;-48
2023/06/09 01:50:56;;;;;;;6.15;5.75;;;;;;;15.75;89.97;98231.53;4113703;28;20203;-48
2023/06/09 01:53:02;;;;;;;6.60;6.00;;;;;;;15.78;90.32;98233.72;4124305;28;20224;-48
2023/06/09 01:55:11;;;;;;;5.68;5.25;;;;;;;15.68;90.08;98224.69;4089851;28;20223;-48
2023/06/09 01:57:55;;;;;;;5.03;4.63;;;;;;;15.65;89.99;98237.16;4112299;28;20222;-48
2023/06/09 02:00:03;;;;;;;5.63;5.22;;;;;;;15.63;90.17;98244.88;4084772;28;20249;-48
2023/06/09 02:02:05;;;;;;;6.43;5.93;;;;;;;15.58;90.46;98236.69;4109787;28;20269;-49
2023/06/09 02:04:08;;;;;;;5.43;5.03;;;;;;;15.62;90.58;98243.25;4096269;28;20278;-49
2023/06/09 02:06:11;;;;;;;5.85;5.45;;;;;;;15.63;90.72;98244.06;4112188;28;20215;-48
2023/06/09 02:08:13;;;;;;;6.32;5.82;;;;;;;15.58;90.55;98235.84;4111081;28;20218;-49
2023/06/09 02:10:16;;;;;;;5.95;5.45;;;;;;;15.57;90.69;98240.50;4106279;28;20218;-50
2023/06/09 02:12:17;;;;;;;5.47;5.13;;;;;;;15.52;91.05;98237.00;4109511;28;20719;-48
2023/06/09 02:14:20;;;;;;;6.40;5.90;;;;;;;15.50;90.79;98240.03;4110772;28;20230;-48
2023/06/09 02:16:24;;;;;;;5.63;5.22;;;;;;;15.48;90.64;98242.25;4111536;28;20298;-49
2023/06/09 02:18:26;;;;;;;5.75;5.35;;;;;;;15.41;90.65;98244.53;4111891;28;20234;-48
2023/06/09 02:20:28;;;;;;;6.40;5.90;;;;;;;15.37;90.47;98246.19;4110604;28;20218;-49
2023/06/09 02:22:30;;;;;;;6.72;6.13;;;;;;;15.34;90.82;98235.75;4112678;28;20203;-48
2023/06/09 02:24:33;;;;;;;6.10;5.63;;;;;;;15.26;90.87;98232.75;4113601;28;20732;-49
2023/06/09 02:26:35;;;;;;;6.82;6.32;;;;;;;15.17;90.86;98238.03;4096266;28;20619;-48
2023/06/09 02:28:37;;;;;;;6.32;5.82;;;;;;;15.13;91.05;98234.22;4113530;28;20203;-49
2023/06/09 02:30:39;;;;;;;6.07;5.68;;;;;;;15.15;91.03;98237.50;4111819;28;20605;-47
2023/06/09 02:32:42;;;;;;;5.70;5.22;;;;;;;15.14;91.15;98235.88;4112591;28;20211;-47
2023/06/09 02:34:45;;;;;;;6.63;6.13;;;;;;;15.12;90.90;98235.34;4110438;28;20285;-49
2023/06/09 02:36:48;;;;;;;5.55;5.10;;;;;;;15.15;91.17;98229.25;4106456;28;20207;-48
2023/06/09 02:38:50;;;;;;;5.55;5.13;;;;;;;15.09;91.20;98235.09;4111586;28;20245;-48
2023/06/09 02:40:52;;;;;;;5.78;5.28;;;;;;;15.02;91.74;98232.63;4126558;28;20210;-49
2023/06/09 02:42:54;;;;;;;6.45;5.85;;;;;;;15.00;91.87;98234.84;4106521;28;20219;-49
2023/06/09 02:44:55;;;;;;;5.88;5.47;;;;;;;15.01;91.56;98230.16;4113120;28;20578;-47
2023/06/09 02:46:59;;;;;;;6.78;6.28;;;;;;;14.96;91.65;98222.75;4111929;28;20206;-48
2023/06/09 02:49:01;;;;;;;5.45;5.05;;;;;;;15.01;91.65;98227.41;4126132;28;20248;-48
2023/06/09 02:51:04;;;;;;;6.43;5.97;;;;;;;14.95;91.72;98221.09;4110774;28;20261;-48
2023/06/09 02:53:06;;;;;;;6.38;5.88;;;;;;;14.94;91.90;98216.72;4124963;28;20218;-49
2023/06/09 02:55:08;;;;;;;6.55;6.05;;;;;;;14.96;92.13;98220.00;4110147;28;20539;-49
2023/06/09 02:57:10;;;;;;;5.95;5.55;;;;;;;14.96;92.01;98217.25;4095724;28;20246;-49
2023/06/09 02:59:12;;;;;;;5.75;5.35;;;;;;;14.95;91.82;98221.09;4109601;28;20681;-49
2023/06/09 03:01:17;;;;;;;5.75;5.35;;;;;;;14.94;92.02;98218.63;4110921;28;20245;-47
2023/06/09 03:03:19;;;;;;;6.53;6.03;;;;;;;14.92;92.08;98224.44;4108916;28;21227;-48
2023/06/09 03:05:22;;;;;;;6.25;5.75;;;;;;;14.87;92.14;98234.66;4098892;28;20257;-49
2023/06/09 03:07:24;;;;;;;6.95;6.38;;;;;;;14.87;92.20;98229.16;4111317;28;20305;-48
2023/06/09 03:09:26;;;;;;;5.47;5.07;;;;;;;14.89;92.34;98232.47;4112972;28;20774;-48
2023/06/09 03:11:28;;;;;;;6.35;5.85;;;;;;;14.88;92.19;98226.13;4111730;28;20215;-49
2023/06/09 03:13:29;;;;;;;6.47;5.85;;;;;;;14.83;92.31;98231.66;4113524;28;20297;-48
2023/06/09 03:15:31;;;;;;;6.45;5.90;;;;;;;14.82;92.50;98230.00;4127983;28;20214;-48
2023/06/09 03:17:34;;;;;;;7.68;5.53;;;;;;;14.83;92.20;98239.91;4112344;28;20215;-48
2023/06/09 03:19:36;;;;;;;6.78;6.20;;;;;;;14.81;92.23;98236.63;4125902;28;20230;-49
2023/06/09 03:21:38;;;;;;;6.40;5.80;;;;;;;14.76;92.65;98228.38;4108690;28;20239;-48
2023/06/09 03:23:42;;;;;;;6.40;5.90;;;;;;;14.74;92.87;98236.13;4111591;28;20218;-48
2023/06/09 03:25:44;;;;;;;7.00;6.43;;;;;;;14.73;92.78;98234.47;4110394;28;20310;-48
2023/06/09 03:27:46;;;;;;;6.85;6.35;;;;;;;14.67;92.98;98240.28;4096215;28;20609;-50
2023/06/09 03:29:48;;;;;;;6.57;6.18;;;;;;;14.63;93.78;98244.72;4110314;28;20258;-48
2023/06/09 03:31:49;;;;;;;6.32;5.93;;;;;;;14.58;93.66;98237.28;4094261;28;20207;-49
2023/06/09 03:33:51;;;;;;;5.97;5.57;;;;;;;14.60;93.36;98234.25;4093893;28;20235;-48
2023/06/09 03:35:53;;;;;;;6.43;5.88;;;;;;;14.59;93.42;98241.69;4110479;28;20230;-50
2023/06/09 03:37:54;;;;;;;6.35;5.90;;;;;;;14.60;93.41;98240.59;4125895;28;20214;-49
2023/06/09 03:39:56;;;;;;;7.53;6.82;;;;;;;14.60;93.68;98240.59;4112897;28;20238;-49
2023/06/09 03:41:58;;;;;;;7.18;5.70;;;;;;;14.59;93.32;98236.19;4107248;28;20277;-50
2023/06/09 03:43:59;;;;;;;6.57;6.10;;;;;;;14.57;93.69;98240.34;4103967;28;20705;-49
2023/06/09 03:46:01;;;;;;;6.18;5.78;;;;;;;14.58;94.07;98237.28;4094217;28;20215;-50
2023/06/09 03:48:05;;;;;;;7.15;6.55;;;;;;;14.61;94.30;98239.47;4110313;28;20210;-49
2023/06/09 03:50:07;;;;;;;5.72;5.43;;;;;;;14.54;94.56;98244.47;4110805;28;20283;-49
2023/06/09 03:52:09;;;;;;;8.25;7.38;;;;;;;14.50;94.34;98242.56;4107825;28;20622;-49
2023/06/09 03:54:11;;;;;;;6.93;6.43;;;;;;;14.55;94.31;98237.00;4109055;28;20310;-50
2023/06/09 03:56:14;;;;;;;6.22;5.72;;;;;;;14.49;94.67;98243.69;4124662;28;20584;-49
2023/06/09 03:58:15;;;;;;;7.13;6.53;;;;;;;14.44;95.12;98247.25;4108667;28;20263;-50
2023/06/09 04:00:21;;;;;;;7.20;6.70;;;;;;;14.37;94.95;98241.22;4109738;28;20204;-48
2023/06/09 04:02:23;;;;;;;7.47;6.88;;;;;;;14.37;94.87;98246.72;4124920;28;20292;-48
2023/06/09 04:04:25;;;;;;;7.20;6.70;;;;;;;14.37;95.40;98254.19;4110585;28;20270;-49
2023/06/09 04:06:31;;;;;;;7.35;6.75;;;;;;;14.37;95.38;98246.72;4109684;28;20585;-49
2023/06/09 04:08:32;;;;;;;7.95;7.00;;;;;;;14.37;95.58;98252.22;4111134;28;20261;-49
2023/06/09 04:10:34;;;;;;;7.25;6.63;;;;;;;14.41;96.08;98247.81;4110162;28;20213;-49
2023/06/09 04:12:36;;;;;;;7.72;7.05;;;;;;;14.39;96.04;98252.81;4107622;28;20691;-50
2023/06/09 04:14:37;;;;;;;7.57;7.05;;;;;;;14.40;95.94;98251.69;4105197;28;20676;-49
2023/06/09 04:16:39;;;;;;;6.32;5.93;;;;;;;14.41;96.14;98258.84;4110287;28;20210;-50
2023/06/09 04:18:41;;;;;;;7.00;6.47;;;;;;;14.46;96.13;98256.06;4115463;28;20222;-48
2023/06/09 04:20:43;;;;;;;7.63;7.03;;;;;;;14.47;96.33;98252.22;4094666;28;20779;-49
2023/06/09 04:22:49;;;;;;;6.32;5.90;;;;;;;14.55;96.10;98253.53;4110249;28;20221;-50
2023/06/09 04:24:51;;;;;;;7.57;6.97;;;;;;;14.53;96.47;98251.09;4108261;28;20289;-49
2023/06/09 04:26:53;;;;;;;8.88;6.85;;;;;;;14.59;96.65;98249.13;4105505;28;20291;-48
2023/06/09 04:28:55;;;;;;;7.70;7.07;;;;;;;14.55;96.57;98251.63;4108329;28;20517;-49
2023/06/09 04:30:57;;;;;;;8.00;7.40;;;;;;;14.55;96.37;98251.63;4113841;28;20270;-49
2023/06/09 04:32:59;;;;;;;7.70;7.13;;;;;;;14.59;96.75;98255.47;4091021;28;20306;-50
2023/06/09 04:35:02;;;;;;;7.28;6.78;;;;;;;14.58;96.65;98253.78;4109471;28;20585;-48
2023/06/09 04:37:04;;;;;;;6.40;6.00;;;;;;;14.61;96.57;98247.75;4124591;28;20217;-49
2023/06/09 04:39:09;;;;;;;8.25;7.47;;;;;;;14.60;96.86;98251.59;4125094;28;20261;-50
2023/06/09 04:41:11;;;;;;;7.78;7.28;;;;;;;14.61;96.96;98245.00;4110340;28;20249;-48
2023/06/09 04:43:14;;;;;;;7.13;6.55;;;;;;;14.69;97.00;98254.59;4110840;28;20637;-50
2023/06/09 04:45:17;;;;;;;8.52;7.13;;;;;;;14.72;97.04;98259.53;4105911;28;20288;-49
2023/06/09 04:47:18;;;;;;;6.95;6.45;;;;;;;14.76;97.03;98255.94;4109028;28;20202;-47
2023/06/09 04:49:23;;;;;;;7.00;6.50;;;;;;;14.79;96.88;98252.63;4110497;28;20307;-49
2023/06/09 04:51:26;;;;;;;6.55;6.05;;;;;;;14.83;96.58;98248.16;4109418;28;20261;-49
2023/06/09 04:53:30;;;;;;;7.03;6.38;;;;;;;14.89;96.54;98255.31;4115567;28;20222;-48
2023/06/09 04:55:33;;;;;;;6.78;6.38;;;;;;;14.94;96.15;98252.53;4108767;28;20202;-48
2023/06/09 04:57:36;;;;;;;6.18;5.70;;;;;;;14.98;95.92;98253.63;4108745;28;20214;-49
2023/06/09 04:59:40;;;;;;;6.13;5.72;;;;;;;15.02;95.82;98249.16;4110224;28;20219;-48
2023/06/09 05:01:46;;;;;;;5.60;5.22;;;;;;;15.04;95.85;98252.44;4108564;28;20210;-49
2023/06/09 05:03:48;;;;;;;6.68;6.18;;;;;;;15.12;95.69;98249.13;4128266;28;20249;-48
2023/06/09 05:05:50;;;;;;;6.50;6.00;;;;;;;15.14;95.78;98246.91;4115550;28;20724;-47
2023/06/09 05:07:51;;;;;;;6.63;6.13;;;;;;;15.20;95.58;98251.28;4130276;28;20707;-48
2023/06/09 05:09:53;;;;;;;7.10;6.60;;;;;;;15.28;95.87;98253.41;4129507;28;21114;-49
2023/06/09 05:11:55;;;;;;;6.30;5.85;;;;;;;15.37;95.80;98251.72;4114660;28;20763;-48
2023/06/09 05:13:57;;;;;;;6.28;5.65;;;;;;;15.44;95.40;98252.19;4116006;28;20634;-49
2023/06/09 05:15:59;;;;;;;6.25;5.75;;;;;;;15.52;95.54;98259.88;4116665;28;20223;-48
2023/06/09 05:18:01;;;;;;;6.13;5.72;;;;;;;15.60;95.09;98256.50;4115548;28;20210;-49
2023/06/09 05:20:07;;;;;;;7.47;6.90;;;;;;;15.71;94.75;98257.25;4117847;28;20230;-49
2023/06/09 05:22:10;;;;;;;6.05;5.65;;;;;;;15.78;94.54;98252.22;4132387;28;20210;-49
2023/06/09 05:24:12;;;;;;;6.45;5.95;;;;;;;15.91;94.48;98246.81;4116089;28;20262;-49
2023/06/09 05:26:15;;;;;;;5.65;5.22;;;;;;;15.99;94.37;98248.97;4113644;28;20258;-49
2023/06/09 05:28:16;;;;;;;7.60;5.80;;;;;;;16.08;94.20;98254.66;4115688;28;21162;-48
2023/06/09 05:30:18;;;;;;;6.13;5.63;;;;;;;16.18;94.75;98255.41;4115116;28;21075;-49
2023/06/09 05:32:20;;;;;;;6.40;5.95;;;;;;;16.32;94.95;98256.34;4114352;28;20325;-47
2023/06/09 05:34:21;;;;;;;9.15;6.78;;;;;;;16.43;95.28;98249.63;4128612;28;20277;-48
2023/06/09 05:36:23;;;;;;;6.75;6.07;;;;;;;16.62;96.08;98258.78;4113069;28;20293;-48
2023/06/09 05:38:25;;;;;;;6.57;6.15;;;;;;;16.53;98.74;98260.56;4112430;28;20483;-49
2023/06/09 05:40:27;;;;;;;8.15;7.55;;;;;;;16.45;99.58;98257.63;4112771;28;20641;-48
2023/06/09 05:42:29;;;;;;;6.55;6.13;;;;;;;16.60;99.01;98258.25;4114930;28;20215;-48
2023/06/09 05:44:31;;;;;;;8.15;6.68;;;;;;;16.58;99.83;98254.97;4108020;28;20243;-49
2023/06/09 05:46:37;;;;;;;6.80;6.30;;;;;;;16.84;99.41;98261.00;4108292;28;20218;-48
2023/06/09 05:48:39;;;;;;;6.75;6.28;;;;;;;17.09;99.24;98264.22;4099294;28;20681;-49
2023/06/09 05:50:40;;;;;;;14.32;7.00;;;;;;;17.35;97.31;98255.28;4114387;28;20562;-49
2023/06/09 05:52:42;;;;;;;12.63;6.20;;;;;;;17.55;96.62;98256.94;4113923;28;20207;-48
2023/06/09 05:54:47;;;;;;;6.38;5.88;;;;;;;17.75;95.59;98257.44;4113205;28;20269;-50
2023/06/09 05:56:49;;;;;;;6.05;5.65;;;;;;;17.84;93.46;98260.34;4115082;28;20246;-50
2023/06/09 05:58:51;;;;;;;6.60;5.50;;;;;;;18.08;93.41;98258.22;4107960;28;20249;-49
2023/06/09 06:00:57;;;;;;;6.15;5.75;;;;;;;18.09;91.99;98259.88;4107664;28;20612;-48
2023/06/09 06:03:03;;;;;;;6.22;5.05;;;;;;;18.03;92.26;98258.31;4110251;28;20207;-48
2023/06/09 06:05:06;;;;;;;5.00;4.70;;;;;;;18.12;91.59;98262.03;4114654;28;20644;-48
2023/06/09 06:07:08;;;;;;;6.32;5.93;;;;;;;18.18;91.00;98260.81;4115434;28;20281;-46
2023/06/09 06:09:11;;;;;;;6.25;5.85;;;;;;;18.38;90.57;98260.47;4114420;28;20198;-49
2023/06/09 06:11:13;;;;;;;6.18;5.68;;;;;;;18.56;89.42;98265.09;4115411;28;20555;-49
2023/06/09 06:13:15;;;;;;;5.50;5.10;;;;;;;18.54;89.23;98264.59;4114854;28;20265;-48
2023/06/09 06:15:17;;;;;;;6.07;5.57;;;;;;;18.45;89.81;98263.66;4113643;28;20263;-49
2023/06/09 06:17:19;;;;;;;6.20;5.63;;;;;;;18.78;88.39;98265.22;4108710;28;20242;-48
2023/06/09 06:19:21;;;;;;;6.28;5.53;;;;;;;18.78;88.66;98271.56;4111536;28;20222;-48
2023/06/09 06:21:23;;;;;;;5.78;5.38;;;;;;;18.88;88.71;98267.75;4111927;28;21039;-48
2023/06/09 06:23:25;;;;;;;6.05;5.65;;;;;;;18.71;88.88;98265.59;4110025;28;20226;-49
2023/06/09 06:25:28;;;;;;;6.53;5.95;;;;;;;18.94;87.99;98272.06;4108422;28;20218;-48
2023/06/09 06:27:30;;;;;;;5.55;5.15;;;;;;;18.95;87.59;98270.94;4110041;28;20234;-49
2023/06/09 06:29:33;;;;;;;5.68;5.15;;;;;;;19.26;87.69;98266.41;4111932;28;20210;-48
2023/06/09 06:31:35;;;;;;;6.20;5.78;;;;;;;19.18;86.67;98267.91;4110794;28;20210;-48
2023/06/09 06:33:39;;;;;;;5.72;5.22;;;;;;;19.28;85.35;98275.22;4111130;28;20321;-48
2023/06/09 06:35:41;;;;;;;6.40;5.80;;;;;;;19.46;85.72;98272.28;4110460;28;20238;-48
2023/06/09 06:37:43;;;;;;;5.72;5.22;;;;;;;19.75;85.24;98275.50;4110746;28;20207;-48
2023/06/09 06:39:44;;;;;;;5.63;5.22;;;;;;;19.74;84.43;98275.78;4104956;28;20238;-48
2023/06/09 06:41:46;;;;;;;6.03;5.43;;;;;;;19.94;83.94;98269.75;4110942;28;20214;-48
2023/06/09 06:43:49;;;;;;;5.60;5.20;;;;;;;20.21;82.75;98266.84;4107040;28;20285;-47
2023/06/09 06:45:51;;;;;;;5.10;4.80;;;;;;;20.01;82.68;98276.50;4114172;28;20305;-48
2023/06/09 06:47:53;;;;;;;5.50;5.10;;;;;;;20.31;83.11;98272.16;4109422;28;20210;-47
2023/06/09 06:49:55;;;;;;;5.75;5.35;;;;;;;20.08;81.52;98270.50;4109416;28;20218;-48
2023/06/09 06:51:57;;;;;;;5.85;5.25;;;;;;;19.94;82.10;98278.91;4103582;28;20221;-47
2023/06/09 06:53:59;;;;;;;5.63;5.22;;;;;;;20.12;81.26;98275.13;4126215;28;20225;-47
2023/06/09 06:56:01;;;;;;;5.43;5.00;;;;;;;20.50;80.98;98278.28;4112124;28;20217;-48
2023/06/09 06:58:03;;;;;;;9.27;5.05;;;;;;;20.50;79.78;98272.75;4111569;28;20270;-48
2023/06/09 07:00:09;;;;;;;5.47;5.07;;;;;;;20.43;79.61;98272.34;4111205;28;20810;-48
2023/06/09 07:02:11;;;;;;;7.45;4.82;;;;;;;20.57;80.01;98271.13;4105810;28;20621;-48
2023/06/09 07:04:13;;;;;;;5.85;5.25;;;;;;;20.85;78.42;98278.09;4110782;28;20269;-48
2023/06/09 07:06:16;;;;;;;5.88;5.43;;;;;;;20.98;77.53;98277.19;4111363;28;20219;-48
2023/06/09 07:08:18;;;;;;;5.13;4.72;;;;;;;21.05;76.73;98276.72;4110290;28;20234;-48
2023/06/09 07:10:20;;;;;;;5.32;4.75;;;;;;;20.91;77.62;98273.25;4109139;28;20270;-48
2023/06/09 07:12:22;;;;;;;4.80;4.40;;;;;;;21.05;76.06;98277.53;4110219;28;20614;-48
2023/06/09 07:14:23;;;;;;;4.53;4.22;;;;;;;20.95;76.77;98282.56;4094430;28;20371;-47
2023/06/09 07:16:25;;;;;;;4.75;4.35;;;;;;;20.81;77.71;98276.28;4111853;28;20218;-48
2023/06/09 07:18:27;;;;;;;5.82;5.30;;;;;;;21.33;76.27;98278.09;4107123;28;20580;-48
2023/06/09 07:20:30;;;;;;;4.97;4.55;;;;;;;21.66;74.98;98277.34;4111483;28;20260;-47
2023/06/09 07:22:33;;;;;;;5.57;5.07;;;;;;;21.34;74.05;98290.88;4111425;28;20277;-47
2023/06/09 07:24:35;;;;;;;5.30;4.90;;;;;;;21.21;74.82;98286.25;4102995;28;20280;-48
2023/06/09 07:26:37;;;;;;;5.93;5.32;;;;;;;21.34;75.18;98290.88;4105805;28;20672;-47
2023/06/09 07:28:39;;;;;;;9.20;4.45;;;;;;;21.28;75.13;98294.94;4102794;28;20729;-48
2023/06/09 07:30:41;;;;;;;6.50;5.85;;;;;;;21.19;75.84;98288.53;4108555;28;20206;-47
2023/06/09 07:32:43;;;;;;;4.50;4.10;;;;;;;21.40;75.04;98297.91;4110500;28;20230;-48
2023/06/09 07:34:45;;;;;;;5.78;5.25;;;;;;;21.51;75.31;98291.69;4108795;28;20235;-47
2023/06/09 07:36:50;;;;;;;5.55;5.15;;;;;;;21.30;75.46;98296.25;4111966;28;20583;-47
2023/06/09 07:38:52;;;;;;;4.95;4.63;;;;;;;21.58;75.96;98291.22;4097722;28;20203;-48
2023/06/09 07:40:54;;;;;;;5.35;4.95;;;;;;;21.84;75.62;98289.31;4112632;28;20233;-47
2023/06/09 07:42:56;;;;;;;6.05;5.65;;;;;;;21.68;74.34;98302.06;4112365;28;20210;-48
2023/06/09 07:44:58;;;;;;;4.80;4.50;;;;;;;21.85;74.86;98305.69;4128214;28;20228;-47
2023/06/09 07:46:59;;;;;;;5.03;4.63;;;;;;;22.24;73.62;98290.75;4109641;28;20242;-47
2023/06/09 07:49:01;;;;;;;6.95;5.32;;;;;;;22.21;71.59;98294.16;4108777;28;20210;-47
2023/06/09 07:51:03;;;;;;;5.43;4.65;;;;;;;22.00;74.08;98294.06;4109279;28;20210;-48
2023/06/09 07:53:05;;;;;;;5.32;4.82;;;;;;;22.55;73.86;98285.75;4106416;28;20241;-47
2023/06/09 07:55:07;;;;;;;5.18;4.78;;;;;;;22.81;69.92;98292.06;4106410;28;20269;-47
2023/06/09 07:57:15;;;;;;;6.50;4.45;;;;;;;22.59;71.40;98290.34;4110856;28;20209;-47
2023/06/09 07:59:18;;;;;;;7.35;4.22;;;;;;;22.65;69.08;98289.00;4112903;28;20590;-47
2023/06/09 08:01:19;;;;;;;4.60;4.20;;;;;;;23.26;69.86;98295.97;4098613;28;20214;-49
2023/06/09 08:03:22;;;;;;;5.13;4.57;;;;;;;22.99;65.78;98288.88;4111092;28;21411;-48
2023/06/09 08:05:24;;;;;;;5.22;4.75;;;;;;;23.21;67.06;98290.56;4104118;28;20262;-48
2023/06/09 08:07:26;;;;;;;6.22;4.93;;;;;;;23.03;66.51;98289.03;4110306;28;20242;-47
2023/06/09 08:09:27;;;;;;;6.30;5.22;;;;;;;23.17;67.06;98289.63;4110391;28;20206;-47
2023/06/09 08:11:29;;;;;;;4.50;4.10;;;;;;;23.22;67.62;98293.03;4123100;28;20213;-47
2023/06/09 08:13:31;;;;;;;7.22;5.95;;;;;;;23.18;65.73;98291.28;4125030;28;20699;-47
2023/06/09 08:15:33;;;;;;;10.57;4.90;;;;;;;23.71;66.22;98288.59;4110281;28;20211;-48
2023/06/09 08:17:35;;;;;;;10.05;4.82;;;;;;;23.73;65.74;98293.50;4109464;28;20210;-47
2023/06/09 08:19:37;;;;;;;5.35;4.95;;;;;;;23.44;65.46;98295.53;4108411;28;20245;-47
2023/06/09 08:21:43;;;;;;;5.07;4.68;;;;;;;23.35;65.81;98289.19;4109178;28;20210;-48
2023/06/09 08:23:45;;;;;;;4.75;4.28;;;;;;;23.47;64.37;98277.28;4110090;28;20240;-47
2023/06/09 08:25:47;;;;;;;4.30;4.00;;;;;;;23.13;66.86;98283.03;4108838;28;20216;-47
2023/06/09 08:27:49;;;;;;;4.43;4.00;;;;;;;23.17;66.67;98282.06;4095080;28;20219;-48
2023/06/09 08:29:51;;;;;;;4.75;4.35;;;;;;;23.67;65.64;98278.09;4104192;28;20257;-47
2023/06/09 08:31:53;;;;;;;4.30;4.00;;;;;;;24.14;65.95;98279.50;4107023;28;20215;-47
2023/06/09 08:33:55;;;;;;;8.50;5.53;;;;;;;24.46;62.67;98275.91;4094837;28;20318;-47
2023/06/09 08:35:56;;;;;;;4.40;4.00;;;;;;;24.16;63.22;98268.00;4109856;28;20359;-47
2023/06/09 08:37:59;;;;;;;5.30;4.60;;;;;;;24.27;62.61;98263.63;4109607;28;20554;-47
2023/06/09 08:40:04;;;;;;;8.02;4.50;;;;;;;24.95;62.10;98269.25;4110751;28;20226;-47
2023/06/09 08:42:17;;;;;;;4.13;3.83;;;;;;;24.77;60.25;98265.03;4103935;28;20205;-47
2023/06/09 08:44:20;;;;;;;4.97;4.57;;;;;;;24.83;59.48;98272.03;4109763;28;20666;-48
2023/06/09 08:46:22;;;;;;;4.43;4.03;;;;;;;24.77;58.36;98262.25;4109834;28;20218;-48
2023/06/09 08:48:26;;;;;;;3.88;3.58;;;;;;;24.30;58.22;98252.56;4094156;28;20214;-47
2023/06/09 08:50:28;;;;;;;5.70;3.50;;;;;;;24.12;58.06;98256.69;4106057;28;20240;-46
2023/06/09 08:52:31;;;;;;;4.78;3.55;;;;;;;24.51;58.15;98246.88;4122344;28;20569;-47
2023/06/09 08:54:32;;;;;;;4.85;4.45;;;;;;;24.64;56.98;98246.59;4109329;28;20754;-47
2023/06/09 08:56:34;;;;;;;4.70;4.30;;;;;;;24.91;56.19;98245.91;4111446;28;20602;-49
2023/06/09 08:58:36;;;;;;;5.70;4.00;;;;;;;24.77;56.33;98253.84;4104115;28;20237;-47
2023/06/09 09:00:40;;;;;;;3.33;3.03;;;;;;;24.95;57.05;98251.63;4103627;28;20302;-48
2023/06/09 09:02:46;;;;;;;3.08;2.88;;;;;;;25.04;54.48;98250.34;4125547;28;20209;-47
2023/06/09 09:04:49;;;;;;;3.38;3.17;;;;;;;25.31;54.35;98243.22;4108400;28;20284;-47
2023/06/09 09:06:50;;;;;;;4.07;3.03;;;;;;;25.29;54.10;98245.56;4092695;28;20217;-48
2023/06/09 09:08:52;;;;;;;2.90;2.72;;;;;;;25.46;53.17;98246.13;4108072;28;20210;-48
2023/06/09 09:10:54;;;;;;;4.07;3.78;;;;;;;25.34;52.15;98242.53;4108282;28;20257;-48
2023/06/09 09:12:56;;;;;;;3.75;3.47;;;;;;;25.70;53.32;98246.06;4104338;28;20218;-47
2023/06/09 09:14:58;;;;;;;3.40;3.10;;;;;;;25.69;50.49;98247.25;4108142;28;20225;-47
2023/06/09 09:17:07;;;;;;;4.32;2.85;;;;;;;25.81;49.00;98252.00;4110735;28;20589;-48
2023/06/09 09:19:09;;;;;;;2.92;2.72;;;;;;;25.67;49.63;98246.78;4122469;28;20210;-47
2023/06/09 09:21:20;;;;;;;2.80;2.35;;;;;;;25.78;48.64;98253.53;4107347;28;20720;-48
2023/06/09 09:23:32;;;;;;;2.65;2.45;;;;;;;25.68;48.33;98264.41;4109192;28;20261;-47
2023/06/09 09:25:34;;;;;;;3.45;3.15;;;;;;;25.17;49.81;98243.56;4105748;28;20686;-47
2023/06/09 09:27:36;;;;;;;3.25;3.05;;;;;;;25.78;49.32;98247.13;4108928;28;20198;-49
2023/06/09 09:29:40;;;;;;;2.90;2.70;;;;;;;25.97;48.71;98245.31;4099689;28;20701;-47
2023/06/09 09:31:42;;;;;;;2.70;2.50;;;;;;;26.35;50.38;98245.59;4109384;28;20206;-48
2023/06/09 09:33:48;;;;;;;6.40;3.08;;;;;;;26.32;48.42;98240.69;4091007;28;20254;-47
2023/06/09 09:35:53;;;;;;;2.80;2.60;;;;;;;26.20;48.18;98249.16;4122457;28;20493;-47
2023/06/09 09:37:55;;;;;;;4.55;2.80;;;;;;;26.19;48.57;98241.94;4125215;28;20202;-47
2023/06/09 09:39:57;;;;;;;3.08;2.72;;;;;;;26.55;48.50;98233.34;4124806;28;20292;-47